createdAt,value
2023-07-27T00:00:30.087Z,97120.13
2023-07-27T00:02:57.889Z,97118.13
2023-07-27T00:05:25.644Z,97117.06
2023-07-27T00:07:53.353Z,97126.53
2023-07-27T00:10:21.611Z,97126.97
2023-07-27T00:12:49.255Z,97118.28
2023-07-27T00:15:16.950Z,97126.97
2023-07-27T00:17:44.764Z,97126.22
2023-07-27T00:20:13.532Z,97131.59
2023-07-27T00:22:41.171Z,97130.50
2023-07-27T00:25:08.868Z,97139.50
2023-07-27T00:27:36.595Z,97127.59
2023-07-27T00:30:04.448Z,97140.72
2023-07-27T00:32:34.548Z,97128.69
2023-07-27T00:35:02.232Z,97125.47
2023-07-27T00:37:31.980Z,97136.47
2023-07-27T00:39:59.614Z,97142.25
2023-07-27T00:42:32.940Z,97135.09
2023-07-27T00:45:00.568Z,97132.34
2023-07-27T00:47:28.361Z,97143.19
2023-07-27T00:49:56.095Z,97144.25
2023-07-27T00:52:24.794Z,97145.47
2023-07-27T00:54:55.865Z,97144.09
2023-07-27T00:57:24.008Z,97142.09
2023-07-27T00:59:52.877Z,97142.09
2023-07-27T01:02:20.545Z,97142.72
2023-07-27T01:04:48.624Z,97148.34
2023-07-27T01:07:17.239Z,97143.19
2023-07-27T01:09:45.021Z,97142.25
2023-07-27T01:12:26.095Z,97139.66
2023-07-27T01:14:59.547Z,97142.09
2023-07-27T01:17:30.100Z,97141.94
2023-07-27T01:20:38.431Z,97153.63
2023-07-27T01:23:34.337Z,97154.72
2023-07-27T01:26:31.288Z,97151.47
2023-07-27T01:29:40.882Z,97148.69
2023-07-27T01:32:11.743Z,97151.34
2023-07-27T01:34:44.263Z,97159.72
2023-07-27T01:37:17.049Z,97152.53
2023-07-27T01:39:49.547Z,97150.72
2023-07-27T01:42:18.657Z,97159.25
2023-07-27T01:44:46.861Z,97149.78
2023-07-27T01:47:15.692Z,97153.88
2023-07-27T01:49:45.073Z,97148.69
2023-07-27T01:52:17.062Z,97143.59
2023-07-27T01:54:45.286Z,97143.59
2023-07-27T01:57:13.838Z,97145.25
2023-07-27T01:59:42.735Z,97161.03
2023-07-27T02:02:10.623Z,97154.88
2023-07-27T02:04:38.450Z,97159.00
2023-07-27T02:07:06.459Z,97148.00
2023-07-27T02:09:34.198Z,97149.19
2023-07-27T02:12:16.800Z,97152.72
2023-07-27T02:15:10.361Z,97161.28
2023-07-27T02:17:50.118Z,97158.91
2023-07-27T02:20:19.782Z,97162.75
2023-07-27T02:22:49.069Z,97164.41
2023-07-27T02:25:17.045Z,97156.72
2023-07-27T02:27:46.300Z,97155.13
2023-07-27T02:30:15.420Z,97149.72
2023-07-27T02:32:43.206Z,97154.25
2023-07-27T02:35:11.069Z,97155.88
2023-07-27T02:37:39.285Z,97160.56
2023-07-27T02:40:08.687Z,97151.16
2023-07-27T02:42:36.516Z,97151.84
2023-07-27T02:45:04.465Z,97151.28
2023-07-27T02:47:37.130Z,97153.28
2023-07-27T02:50:05.325Z,97160.13
2023-07-27T02:52:38.792Z,97155.59
2023-07-27T02:55:06.820Z,97164.34
2023-07-27T02:57:34.391Z,97157.09
2023-07-27T03:00:02.718Z,97164.53
2023-07-27T03:02:35.749Z,97165.00
2023-07-27T03:05:06.824Z,97161.69
2023-07-27T03:07:34.523Z,97155.72
2023-07-27T03:10:02.442Z,97162.88
2023-07-27T03:12:32.718Z,97159.81
2023-07-27T03:15:00.363Z,97161.94
2023-07-27T03:17:28.034Z,97171.56
2023-07-27T03:19:55.717Z,97163.94
2023-07-27T03:22:23.408Z,97160.59
2023-07-27T03:24:51.181Z,97161.41
2023-07-27T03:27:18.880Z,97165.00
2023-07-27T03:29:46.486Z,97166.44
2023-07-27T03:32:14.744Z,97163.72
2023-07-27T03:34:42.357Z,97168.19
2023-07-27T03:37:10.104Z,97166.16
2023-07-27T03:39:37.846Z,97163.22
2023-07-27T03:42:05.865Z,97165.28
2023-07-27T03:44:33.508Z,97159.19
2023-07-27T03:47:01.271Z,97163.75
2023-07-27T03:49:29.729Z,97175.56
2023-07-27T03:51:59.537Z,97164.94
2023-07-27T03:54:27.339Z,97160.56
2023-07-27T03:56:55.284Z,97167.16
2023-07-27T03:59:23.030Z,97161.25
2023-07-27T04:01:50.734Z,97166.25
2023-07-27T04:04:18.463Z,97152.69
2023-07-27T04:06:46.858Z,97158.03
2023-07-27T04:09:14.797Z,97163.00
2023-07-27T04:11:43.326Z,97146.00
2023-07-27T04:14:10.946Z,97164.81
2023-07-27T04:16:38.696Z,97164.63
2023-07-27T04:19:06.504Z,97166.34
2023-07-27T04:21:34.965Z,97169.94
2023-07-27T04:24:03.120Z,97166.13
2023-07-27T04:26:31.588Z,97161.47
2023-07-27T04:29:00.054Z,97160.50
2023-07-27T04:31:27.650Z,97164.59
2023-07-27T04:33:55.359Z,97168.00
2023-07-27T04:36:22.923Z,97171.78
2023-07-27T04:38:50.611Z,97162.03
2023-07-27T04:41:19.136Z,97170.31
2023-07-27T04:43:46.956Z,97172.31
2023-07-27T04:46:14.597Z,97164.28
2023-07-27T04:48:42.388Z,97166.22
2023-07-27T04:51:10.024Z,97173.84
2023-07-27T04:53:38.665Z,97165.00
2023-07-27T04:56:06.504Z,97173.44
2023-07-27T04:58:34.194Z,97171.06
2023-07-27T05:01:02.049Z,97164.00
2023-07-27T05:03:29.793Z,97156.03
2023-07-27T05:05:57.391Z,97159.22
2023-07-27T05:08:25.484Z,97161.09
2023-07-27T05:10:53.116Z,97156.13
2023-07-27T05:13:20.738Z,97151.41
2023-07-27T05:15:48.620Z,97146.69
2023-07-27T05:18:16.405Z,97140.91
2023-07-27T05:20:44.292Z,97153.97
2023-07-27T05:23:12.013Z,97145.16
2023-07-27T05:25:40.344Z,97145.53
2023-07-27T05:28:08.036Z,97145.22
2023-07-27T05:30:35.834Z,97144.22
2023-07-27T05:33:03.579Z,97131.03
2023-07-27T05:35:31.425Z,97137.59
2023-07-27T05:37:59.074Z,97139.38
2023-07-27T05:40:26.811Z,97143.66
2023-07-27T05:42:54.630Z,97140.34
2023-07-27T05:45:22.174Z,97147.47
2023-07-27T05:47:50.172Z,97141.69
2023-07-27T05:50:18.052Z,97148.59
2023-07-27T05:52:45.859Z,97144.56
2023-07-27T05:55:13.469Z,97142.34
2023-07-27T05:57:43.240Z,97153.19
2023-07-27T06:00:11.641Z,97142.28
2023-07-27T06:02:39.271Z,97125.94
2023-07-27T06:05:07.732Z,97129.16
2023-07-27T06:07:35.311Z,97117.16
2023-07-27T06:10:03.165Z,97115.66
2023-07-27T06:12:32.008Z,97116.56
2023-07-27T06:14:59.606Z,97120.41
2023-07-27T06:17:30.323Z,97117.63
2023-07-27T06:19:58.129Z,97118.25
2023-07-27T06:22:25.829Z,97111.84
2023-07-27T06:24:53.461Z,97115.09
2023-07-27T06:27:21.055Z,97113.03
2023-07-27T06:29:48.724Z,97109.16
2023-07-27T06:32:16.745Z,97104.22
2023-07-27T06:34:44.606Z,97108.41
2023-07-27T06:37:12.307Z,97111.59
2023-07-27T06:39:40.008Z,97106.59
2023-07-27T06:42:07.870Z,97106.94
2023-07-27T06:44:37.130Z,97106.53
2023-07-27T06:47:07.188Z,97099.16
2023-07-27T06:49:35.459Z,97092.09
2023-07-27T06:52:03.288Z,97099.09
2023-07-27T06:54:31.153Z,97097.84
2023-07-27T06:56:58.818Z,97096.59
2023-07-27T06:59:29.420Z,97094.38
2023-07-27T07:01:58.906Z,97104.06
2023-07-27T07:04:26.566Z,97097.38
2023-07-27T07:06:54.180Z,97098.69
2023-07-27T07:09:23.127Z,97095.91
2023-07-27T07:11:50.783Z,97104.25
2023-07-27T07:14:18.413Z,97090.69
2023-07-27T07:16:46.689Z,97086.50
2023-07-27T07:19:14.616Z,97093.75
2023-07-27T07:21:42.210Z,97081.63
2023-07-27T07:24:09.929Z,97088.25
2023-07-27T07:29:05.598Z,97085.47
2023-07-27T07:31:33.314Z,97085.28
2023-07-27T07:34:00.986Z,97083.41
2023-07-27T07:36:28.555Z,97084.09
2023-07-27T07:38:56.277Z,97086.88
2023-07-27T07:41:24.843Z,97098.94
2023-07-27T07:43:53.043Z,97087.19
2023-07-27T07:46:22.734Z,97102.38
2023-07-27T07:48:50.718Z,97099.50
2023-07-27T07:51:18.362Z,97099.31
2023-07-27T07:53:46.036Z,97092.81
2023-07-27T07:56:17.838Z,97097.72
2023-07-27T07:58:48.756Z,97099.66
2023-07-27T08:01:16.400Z,97099.72
2023-07-27T08:03:43.986Z,97095.69
2023-07-27T08:06:14.592Z,97109.75
2023-07-27T08:08:42.533Z,97097.22
2023-07-27T08:11:11.090Z,97110.38
2023-07-27T08:13:40.886Z,97110.13
2023-07-27T08:16:08.765Z,97107.50
2023-07-27T08:18:36.749Z,97099.16
2023-07-27T08:21:07.613Z,97103.34
2023-07-27T08:23:35.311Z,97107.66
2023-07-27T08:26:04.799Z,97096.13
2023-07-27T08:28:32.374Z,97095.50
2023-07-27T08:31:00.369Z,97086.63
2023-07-27T08:33:28.009Z,97081.03
2023-07-27T08:35:55.849Z,97091.81
2023-07-27T08:38:24.839Z,97082.47
2023-07-27T08:40:55.618Z,97101.13
2023-07-27T08:43:23.530Z,97088.28
2023-07-27T08:45:51.920Z,97094.50
2023-07-27T08:48:20.194Z,97099.41
2023-07-27T08:50:49.567Z,97093.09
2023-07-27T08:53:18.045Z,97086.91
2023-07-27T08:55:46.339Z,97073.31
2023-07-27T08:58:14.073Z,97079.50
2023-07-27T09:00:41.731Z,97073.16
2023-07-27T09:03:09.566Z,97073.81
2023-07-27T09:05:57.801Z,97067.78
2023-07-27T09:08:29.651Z,97064.91
2023-07-27T09:11:07.207Z,97063.34
2023-07-27T09:13:35.752Z,97058.88
2023-07-27T09:16:13.116Z,97051.41
2023-07-27T09:18:40.901Z,97050.63
2023-07-27T09:21:10.511Z,97052.06
2023-07-27T09:23:39.861Z,97051.78
2023-07-27T09:26:07.683Z,97042.69
2023-07-27T09:28:36.077Z,97040.84
2023-07-27T09:31:04.731Z,97040.72
2023-07-27T09:33:33.309Z,97042.53
2023-07-27T09:36:03.572Z,97043.84
2023-07-27T09:38:32.503Z,97039.00
2023-07-27T09:41:07.380Z,97044.59
2023-07-27T09:43:41.877Z,97039.75
2023-07-27T09:46:09.686Z,97033.91
2023-07-27T09:48:39.507Z,97032.78
2023-07-27T09:51:09.081Z,97035.03
2023-07-27T09:53:38.428Z,97038.44
2023-07-27T09:56:07.149Z,97034.38
2023-07-27T09:58:34.886Z,97028.53
2023-07-27T10:01:02.430Z,97029.28
2023-07-27T10:03:30.223Z,97031.53
2023-07-27T10:05:58.571Z,97035.28
2023-07-27T10:08:26.781Z,97025.34
2023-07-27T10:11:00.397Z,97030.22
2023-07-27T10:13:30.513Z,97024.38
2023-07-27T10:15:58.834Z,97029.63
2023-07-27T10:18:28.842Z,97030.59
2023-07-27T10:21:22.639Z,97028.16
2023-07-27T10:23:54.275Z,97026.97
2023-07-27T10:26:22.881Z,97018.69
2023-07-27T10:28:50.540Z,97011.91
2023-07-27T10:31:21.743Z,97017.53
2023-07-27T10:33:57.287Z,97016.81
2023-07-27T10:37:06.368Z,97026.41
2023-07-27T10:39:53.481Z,97023.00
2023-07-27T10:42:24.285Z,97022.31
2023-07-27T10:44:57.963Z,97027.00
2023-07-27T10:47:48.627Z,97018.50
2023-07-27T10:50:19.295Z,97012.28
2023-07-27T10:52:47.294Z,97013.75
2023-07-27T10:55:15.063Z,96999.19
2023-07-27T10:57:43.804Z,97008.84
2023-07-27T11:00:12.151Z,97003.59
2023-07-27T11:02:42.697Z,97002.50
2023-07-27T11:05:11.435Z,97003.06
2023-07-27T11:07:47.756Z,97004.78
2023-07-27T11:10:19.648Z,97006.03
2023-07-27T11:12:48.115Z,96998.94
2023-07-27T11:15:23.468Z,97013.44
2023-07-27T11:17:52.668Z,96997.06
2023-07-27T11:20:22.462Z,97002.16
2023-07-27T11:22:52.123Z,97000.78
2023-07-27T11:25:20.311Z,96995.16
2023-07-27T11:27:52.508Z,96999.72
2023-07-27T11:30:23.770Z,96990.66
2023-07-27T11:33:01.846Z,96998.47
2023-07-27T11:35:31.268Z,96995.47
2023-07-27T11:37:59.594Z,96992.63
2023-07-27T11:40:28.141Z,96988.84
2023-07-27T11:42:56.864Z,96980.25
2023-07-27T11:45:26.982Z,96983.41
2023-07-27T11:47:54.745Z,96981.88
2023-07-27T11:50:22.852Z,96977.00
2023-07-27T11:52:52.612Z,96976.81
2023-07-27T11:55:20.275Z,96967.59
2023-07-27T11:57:54.174Z,96991.47
2023-07-27T12:00:23.079Z,96967.88
2023-07-27T12:02:53.727Z,96962.13
2023-07-27T12:05:24.446Z,96970.59
2023-07-27T12:15:39.110Z,96967.56
2023-07-27T12:18:08.975Z,96962.34
2023-07-27T12:25:40.097Z,96945.47
2023-07-27T12:30:43.244Z,96941.72
2023-07-27T12:33:12.848Z,96938.94
2023-07-27T12:35:41.525Z,96934.91
2023-07-27T12:43:10.789Z,96923.81
2023-07-27T12:45:38.773Z,96916.72
2023-07-27T12:48:07.215Z,96923.59
2023-07-27T12:50:35.032Z,96922.84
2023-07-27T12:53:02.762Z,96916.63
2023-07-27T12:55:30.466Z,96912.63
2023-07-27T12:57:58.766Z,96914.47
2023-07-27T13:00:29.884Z,96913.16
2023-07-27T13:02:57.987Z,96901.56
2023-07-27T13:05:25.726Z,96895.78
2023-07-27T13:07:53.539Z,96893.44
2023-07-27T13:10:21.522Z,96894.63
2023-07-27T13:12:49.202Z,96886.66
2023-07-27T13:15:20.883Z,96895.38
2023-07-27T13:17:49.322Z,96888.84
2023-07-27T13:20:20.102Z,96889.06
2023-07-27T13:22:47.824Z,96886.38
2023-07-27T13:25:15.523Z,96889.69
2023-07-27T13:27:43.247Z,96885.53
2023-07-27T13:30:11.405Z,96880.78
2023-07-27T13:32:40.109Z,96875.84
2023-07-27T13:35:10.930Z,96879.81
2023-07-27T13:37:40.884Z,96875.00
2023-07-27T13:40:09.196Z,96879.38
2023-07-27T13:42:37.007Z,96877.66
2023-07-27T13:45:06.434Z,96870.34
2023-07-27T13:47:34.501Z,96870.34
2023-07-27T13:50:02.656Z,96868.63
2023-07-27T13:52:31.202Z,96874.97
2023-07-27T13:54:58.890Z,96877.84
2023-07-27T13:57:26.655Z,96868.50
2023-07-27T13:59:54.850Z,96870.88
2023-07-27T14:02:22.716Z,96875.38
2023-07-27T14:04:51.680Z,96880.75
2023-07-27T14:07:20.639Z,96878.72
2023-07-27T14:09:50.519Z,96874.19
2023-07-27T14:12:18.291Z,96870.22
2023-07-27T14:14:46.020Z,96876.13
2023-07-27T14:17:13.682Z,96878.59
2023-07-27T14:19:41.359Z,96885.47
2023-07-27T14:22:09.255Z,96882.47
2023-07-27T14:24:37.080Z,96885.78
2023-07-27T14:27:04.856Z,96889.09
2023-07-27T14:29:32.506Z,96886.66
2023-07-27T14:32:00.433Z,96895.34
2023-07-27T14:34:28.664Z,96893.06
2023-07-27T14:36:58.439Z,96888.34
2023-07-27T14:39:48.164Z,96899.50
2023-07-27T14:42:13.917Z,96891.56
2023-07-27T14:44:41.810Z,96899.16
2023-07-27T14:47:09.556Z,96896.00
2023-07-27T14:49:39.865Z,96904.81
2023-07-27T14:52:09.627Z,96905.34
2023-07-27T14:54:37.508Z,96905.22
2023-07-27T14:57:13.046Z,96911.88
2023-07-27T14:59:56.029Z,96903.34
2023-07-27T15:04:55.969Z,96896.38
2023-07-27T15:07:23.806Z,96906.25
2023-07-27T15:09:51.967Z,96906.56
2023-07-27T15:12:19.713Z,96900.53
2023-07-27T15:14:47.478Z,96906.16
2023-07-27T15:17:15.246Z,96900.81
2023-07-27T15:19:45.869Z,96912.34
2023-07-27T15:22:13.802Z,96913.63
2023-07-27T15:24:41.546Z,96910.09
2023-07-27T15:27:09.520Z,96914.97
2023-07-27T15:29:38.580Z,96907.47
2023-07-27T15:32:06.951Z,96905.31
2023-07-27T15:34:34.572Z,96910.91
2023-07-27T15:37:02.423Z,96903.13
2023-07-27T15:39:30.234Z,96900.66
2023-07-27T15:41:57.904Z,96901.00
2023-07-27T15:44:25.605Z,96906.88
2023-07-27T15:46:53.292Z,96902.09
2023-07-27T15:49:21.004Z,96904.19
2023-07-27T15:51:48.565Z,96903.22
2023-07-27T15:54:16.245Z,96894.16
2023-07-27T15:56:44.406Z,96895.19
2023-07-27T15:59:12.364Z,96894.16
2023-07-27T16:01:40.223Z,96890.25
2023-07-27T16:04:07.887Z,96898.03
2023-07-27T16:06:35.891Z,96894.03
2023-07-27T16:09:03.655Z,96889.50
2023-07-27T16:11:31.368Z,96887.75
2023-07-27T16:13:58.976Z,96892.94
2023-07-27T16:16:26.642Z,96886.66
2023-07-27T16:18:54.486Z,96887.66
2023-07-27T16:21:22.389Z,96884.13
2023-07-27T16:23:50.075Z,96889.69
2023-07-27T16:26:17.767Z,96884.59
2023-07-27T16:28:45.454Z,96881.41
2023-07-27T16:31:13.195Z,96881.13
2023-07-27T16:33:40.998Z,96878.25
2023-07-27T16:36:15.577Z,96894.25
2023-07-27T16:38:43.617Z,96888.66
2023-07-27T16:41:12.197Z,96882.69
2023-07-27T16:43:40.169Z,96868.88
2023-07-27T16:46:07.974Z,96870.47
2023-07-27T16:48:36.087Z,96879.41
2023-07-27T16:51:08.016Z,96874.41
2023-07-27T16:53:35.698Z,96861.03
2023-07-27T16:56:08.029Z,96875.31
2023-07-27T16:58:35.854Z,96862.38
2023-07-27T17:01:04.638Z,96872.38
2023-07-27T17:03:33.087Z,96863.22
2023-07-27T17:06:01.235Z,96852.63
2023-07-27T17:08:29.233Z,96866.59
2023-07-27T17:11:01.541Z,96869.56
2023-07-27T17:13:29.475Z,96859.34
2023-07-27T17:16:09.048Z,96866.09
2023-07-27T17:18:39.200Z,96865.41
2023-07-27T17:21:08.232Z,96862.69
2023-07-27T17:23:37.174Z,96853.38
2023-07-27T17:26:06.046Z,96851.81
2023-07-27T17:28:34.678Z,96851.28
2023-07-27T17:31:04.430Z,96861.63
2023-07-27T17:33:32.617Z,96848.06
2023-07-27T17:36:01.854Z,96844.72
2023-07-27T17:38:31.619Z,96840.88
2023-07-27T17:41:00.593Z,96847.75
2023-07-27T17:43:28.466Z,96835.16
2023-07-27T17:45:59.235Z,96833.44
2023-07-27T17:48:29.731Z,96836.47
2023-07-27T17:50:59.366Z,96838.50
2023-07-27T17:53:29.119Z,96835.31
2023-07-27T17:56:00.780Z,96838.97
2023-07-27T17:58:28.438Z,96829.41
2023-07-27T18:00:56.282Z,96827.88
2023-07-27T18:03:24.060Z,96830.91
2023-07-27T18:05:53.059Z,96836.66
2023-07-27T18:08:20.979Z,96832.38
2023-07-27T18:10:50.068Z,96838.94
2023-07-27T18:13:17.812Z,96826.34
2023-07-27T18:15:46.622Z,96828.63
2023-07-27T18:18:14.350Z,96831.41
2023-07-27T18:20:42.109Z,96826.59
2023-07-27T18:23:09.873Z,96819.53
2023-07-27T18:25:40.781Z,96823.13
2023-07-27T18:28:08.720Z,96826.09
2023-07-27T18:30:37.631Z,96826.09
2023-07-27T18:33:08.705Z,96826.38
2023-07-27T18:35:36.628Z,96813.50
2023-07-27T18:38:04.301Z,96818.78
2023-07-27T18:40:33.200Z,96824.81
2023-07-27T18:43:00.812Z,96820.53
2023-07-27T18:45:49.599Z,96826.09
2023-07-27T18:48:17.803Z,96822.78
2023-07-27T18:50:45.774Z,96822.78
2023-07-27T18:53:13.696Z,96816.25
2023-07-27T18:55:41.520Z,96814.25
2023-07-27T18:58:09.178Z,96818.28
2023-07-27T19:00:36.971Z,96808.97
2023-07-27T19:03:07.028Z,96808.00
2023-07-27T19:05:34.782Z,96808.47
2023-07-27T19:08:02.418Z,96799.66
2023-07-27T19:10:30.323Z,96814.28
2023-07-27T19:12:57.908Z,96813.03
2023-07-27T19:15:28.316Z,96812.00
2023-07-27T19:17:56.506Z,96813.53
2023-07-27T19:20:24.314Z,96801.16
2023-07-27T19:22:52.733Z,96805.44
2023-07-27T19:25:20.810Z,96801.16
2023-07-27T19:27:49.070Z,96806.69
2023-07-27T19:30:18.259Z,96802.94
2023-07-27T19:32:46.918Z,96787.03
2023-07-27T19:35:16.061Z,96797.88
2023-07-27T19:37:44.012Z,96778.22
2023-07-27T19:40:13.408Z,96784.00
2023-07-27T19:42:41.147Z,96782.00
2023-07-27T19:45:09.237Z,96780.25
2023-07-27T19:47:36.926Z,96782.75
2023-07-27T19:50:05.928Z,96779.47
2023-07-27T19:52:34.010Z,96776.97
2023-07-27T19:55:02.298Z,96778.22
2023-07-27T19:57:31.596Z,96782.78
2023-07-27T19:59:59.486Z,96774.19
2023-07-27T20:02:27.763Z,96774.19
2023-07-27T20:04:56.432Z,96772.91
2023-07-27T20:07:25.241Z,96776.97
2023-07-27T20:09:53.031Z,96765.38
2023-07-27T20:12:20.789Z,96771.16
2023-07-27T20:14:49.342Z,96769.63
2023-07-27T20:17:18.244Z,96765.09
2023-07-27T20:19:46.004Z,96752.75
2023-07-27T20:22:13.727Z,96752.25
2023-07-27T20:24:43.632Z,96748.47
2023-07-27T20:27:11.714Z,96741.41
2023-07-27T20:29:39.334Z,96743.69
2023-07-27T20:32:08.032Z,96747.47
2023-07-27T20:34:35.692Z,96745.69
2023-07-27T20:37:03.680Z,96735.63
2023-07-27T20:39:31.428Z,96736.88
2023-07-27T20:42:00.482Z,96738.38
2023-07-27T20:44:28.233Z,96746.91
2023-07-27T20:46:56.081Z,96744.38
2023-07-27T20:49:23.760Z,96745.66
2023-07-27T20:51:51.687Z,96742.59
2023-07-27T20:54:19.522Z,96739.31
2023-07-27T20:56:47.346Z,96753.16
2023-07-27T20:59:15.116Z,96727.97
2023-07-27T21:01:43.031Z,96727.47
2023-07-27T21:04:10.895Z,96730.75
2023-07-27T21:06:41.745Z,96733.50
2023-07-27T21:09:09.503Z,96720.16
2023-07-27T21:11:37.509Z,96725.41
2023-07-27T21:14:05.444Z,96727.16
2023-07-27T21:16:33.615Z,96715.34
2023-07-27T21:19:01.836Z,96712.06
2023-07-27T21:21:32.699Z,96715.31
2023-07-27T21:24:03.173Z,96723.88
2023-07-27T21:26:33.309Z,96716.34
2023-07-27T21:29:01.899Z,96714.28
2023-07-27T21:31:31.123Z,96705.47
2023-07-27T21:33:58.964Z,96708.69
2023-07-27T21:36:26.965Z,96709.19
2023-07-27T21:38:54.807Z,96712.97
2023-07-27T21:41:22.486Z,96714.25
2023-07-27T21:43:50.090Z,96711.75
2023-07-27T21:46:17.840Z,96709.75
2023-07-27T21:48:45.572Z,96709.25
2023-07-27T21:51:13.442Z,96702.72
2023-07-27T21:53:41.182Z,96699.44
2023-07-27T21:56:09.162Z,96699.69
2023-07-27T21:58:36.864Z,96700.97
2023-07-27T22:01:04.909Z,96695.66
2023-07-27T22:03:32.655Z,96700.16
2023-07-27T22:06:00.356Z,96695.13
2023-07-27T22:08:28.042Z,96675.97
2023-07-27T22:10:56.329Z,96679.31
2023-07-27T22:13:24.322Z,96696.84
2023-07-27T22:15:52.110Z,96698.63
2023-07-27T22:18:19.896Z,96696.09
2023-07-27T22:20:47.953Z,96693.81
2023-07-27T22:23:15.924Z,96696.81
2023-07-27T22:25:44.583Z,96704.59
2023-07-27T22:28:12.963Z,96701.56
2023-07-27T22:30:48.009Z,96709.75
2023-07-27T22:33:16.439Z,96699.56
2023-07-27T22:35:47.901Z,96709.66
2023-07-27T22:38:16.238Z,96690.75
2023-07-27T22:40:55.618Z,96702.94
2023-07-27T22:43:23.661Z,96679.19
2023-07-27T22:45:52.955Z,96700.06
2023-07-27T22:48:22.372Z,96700.84
2023-07-27T22:50:50.825Z,96696.78
2023-07-27T22:53:18.904Z,96697.28
2023-07-27T22:55:51.363Z,96700.09
2023-07-27T22:58:19.990Z,96694.78
2023-07-27T23:00:48.113Z,96690.97
2023-07-27T23:03:16.173Z,96688.69
2023-07-27T23:05:43.859Z,96699.25
2023-07-27T23:08:11.628Z,96694.72
2023-07-27T23:10:40.335Z,96698.78
2023-07-27T23:13:08.259Z,96687.97
2023-07-27T23:15:36.800Z,96685.47
2023-07-27T23:18:05.589Z,96701.56
2023-07-27T23:20:34.551Z,96699.78
2023-07-27T23:23:04.763Z,96695.00
2023-07-27T23:25:32.377Z,96692.50
2023-07-27T23:28:04.274Z,96701.78
2023-07-27T23:30:32.293Z,96693.97
2023-07-27T23:33:00.675Z,96691.72
2023-07-27T23:35:28.867Z,96692.50
2023-07-27T23:37:57.107Z,96681.13
2023-07-27T23:40:24.870Z,96694.97
2023-07-27T23:42:52.662Z,96687.94
2023-07-27T23:45:20.564Z,96690.97
2023-07-27T23:47:48.901Z,96699.75
2023-07-27T23:50:16.589Z,96689.19
2023-07-27T23:52:44.246Z,96684.16
2023-07-27T23:55:12.673Z,96702.25
2023-07-27T23:57:40.481Z,96705.78
